createdAt,value
2023-01-12T00:02:19.875Z,100302.66
2023-01-12T00:04:47.852Z,100226.63
2023-01-12T00:07:18.037Z,100280.91
2023-01-12T00:09:45.891Z,100281.06
2023-01-12T00:12:14.568Z,100265.81
2023-01-12T00:14:42.441Z,100277.63
2023-01-12T00:17:11.907Z,100271.75
2023-01-12T00:19:41.508Z,100268.03
2023-01-12T00:22:12.339Z,100274.75
2023-01-12T00:24:42.534Z,100224.75
2023-01-12T00:27:12.142Z,100261.72
2023-01-12T00:29:40.430Z,100248.75
2023-01-12T00:32:13.749Z,100200.13
2023-01-12T00:34:46.167Z,100244.63
2023-01-12T00:37:15.985Z,100224.72
2023-01-12T00:39:53.107Z,100217.41
2023-01-12T00:42:38.617Z,100219.63
2023-01-12T00:45:24.998Z,100225.50
2023-01-12T00:47:53.967Z,100207.97
2023-01-12T00:50:23.438Z,100207.59
2023-01-12T00:52:51.337Z,100168.75
2023-01-12T00:55:19.839Z,100205.91
2023-01-12T00:57:48.078Z,100169.38
2023-01-12T01:00:17.204Z,100196.53
2023-01-12T01:02:45.603Z,100207.47
2023-01-12T01:05:13.493Z,100182.28
2023-01-12T01:07:43.902Z,100189.97
2023-01-12T01:10:15.709Z,100184.22
2023-01-12T01:12:43.806Z,100129.75
2023-01-12T01:15:14.576Z,100164.56
2023-01-12T01:17:43.110Z,100171.78
2023-01-12T01:20:12.577Z,100169.72
2023-01-12T01:22:40.387Z,100162.03
2023-01-12T01:25:11.262Z,100114.50
2023-01-12T01:27:39.226Z,100178.25
2023-01-12T01:30:08.401Z,100172.38
2023-01-12T01:32:36.765Z,100181.13
2023-01-12T01:35:04.970Z,100157.94
2023-01-12T01:37:32.835Z,100152.06
2023-01-12T01:40:01.311Z,100160.34
2023-01-12T01:42:30.558Z,100119.78
2023-01-12T01:45:00.417Z,100126.47
2023-01-12T01:47:34.140Z,100118.25
2023-01-12T01:50:05.006Z,100129.75
2023-01-12T01:52:38.036Z,100137.44
2023-01-12T01:55:09.999Z,100163.66
2023-01-12T01:57:45.943Z,100111.06
2023-01-12T02:00:14.824Z,100153.66
2023-01-12T02:02:45.116Z,100119.16
2023-01-12T02:05:19.431Z,100130.91
2023-01-12T02:07:47.334Z,100109.19
2023-01-12T02:10:15.467Z,100111.91
2023-01-12T02:13:02.597Z,100136.19
2023-01-12T02:15:54.540Z,100139.22
2023-01-12T02:18:29.506Z,100119.72
2023-01-12T02:21:13.207Z,100124.31
2023-01-12T02:24:27.073Z,100113.09
2023-01-12T02:27:32.404Z,100103.16
2023-01-12T02:30:37.919Z,100089.25
2023-01-12T02:33:24.565Z,100101.31
2023-01-12T02:36:02.347Z,100078.41
2023-01-12T02:38:37.879Z,100086.44
2023-01-12T02:41:17.251Z,100065.16
2023-01-12T02:43:44.877Z,100083.25
2023-01-12T02:46:22.062Z,100056.19
2023-01-12T02:48:57.168Z,100072.31
2023-01-12T02:51:32.778Z,100050.63
2023-01-12T02:54:05.709Z,100037.34
2023-01-12T02:56:38.613Z,100050.09
2023-01-12T02:59:10.656Z,100010.72
2023-01-12T03:01:39.945Z,100024.34
2023-01-12T03:04:14.018Z,100021.41
2023-01-12T03:06:48.850Z,100007.44
2023-01-12T03:09:19.692Z,100022.53
2023-01-12T03:11:50.548Z,100038.06
2023-01-12T03:14:18.952Z,99993.31
2023-01-12T03:16:46.925Z,99951.09
2023-01-12T03:19:21.788Z,99972.91
2023-01-12T03:21:53.228Z,99977.34
2023-01-12T03:24:27.214Z,99972.19
2023-01-12T03:27:00.292Z,99967.09
2023-01-12T03:29:34.690Z,99949.56
2023-01-12T03:32:03.063Z,99932.38
2023-01-12T03:34:33.387Z,99953.66
2023-01-12T03:37:08.306Z,99934.97
2023-01-12T03:39:43.532Z,99945.69
2023-01-12T03:42:16.295Z,99906.78
2023-01-12T03:44:54.689Z,99928.94
2023-01-12T03:47:28.908Z,99924.28
2023-01-12T03:50:04.220Z,99882.91
2023-01-12T03:52:33.475Z,99912.19
2023-01-12T03:55:03.338Z,99918.06
2023-01-12T03:57:31.601Z,99873.19
2023-01-12T04:00:02.494Z,99886.53
2023-01-12T04:02:30.325Z,99862.13
2023-01-12T04:04:59.562Z,99897.97
2023-01-12T04:07:27.561Z,99827.91
2023-01-12T04:09:57.143Z,99883.28
2023-01-12T04:12:25.177Z,99858.22
2023-01-12T04:14:53.774Z,99835.22
2023-01-12T04:17:25.051Z,99885.56
2023-01-12T04:19:53.715Z,99878.16
2023-01-12T04:22:40.211Z,99832.75
2023-01-12T04:25:09.947Z,99872.25
2023-01-12T04:27:37.870Z,99840.41
2023-01-12T04:30:06.376Z,99844.81
2023-01-12T04:32:34.620Z,99834.25
2023-01-12T04:35:02.572Z,99757.78
2023-01-12T04:37:32.797Z,99800.00
2023-01-12T04:40:00.779Z,99814.53
2023-01-12T04:42:51.724Z,99808.88
2023-01-12T04:45:20.044Z,99807.34
2023-01-12T04:47:47.864Z,99832.13
2023-01-12T04:50:15.952Z,99820.50
2023-01-12T04:52:46.142Z,99799.56
2023-01-12T04:55:13.970Z,99856.94
2023-01-12T04:57:41.890Z,99857.63
2023-01-12T05:00:11.323Z,99838.78
2023-01-12T05:02:39.232Z,99831.22
2023-01-12T05:05:08.830Z,99824.38
2023-01-12T05:07:37.157Z,99824.75
2023-01-12T05:10:27.457Z,99819.41
2023-01-12T05:12:55.688Z,99840.25
2023-01-12T05:15:23.811Z,99836.16
2023-01-12T05:17:52.160Z,99846.06
2023-01-12T05:20:20.663Z,99850.28
2023-01-12T05:22:50.623Z,99825.56
2023-01-12T05:25:20.398Z,99813.78
2023-01-12T05:27:48.258Z,99824.97
2023-01-12T05:30:16.955Z,99830.28
2023-01-12T05:32:45.534Z,99826.81
2023-01-12T05:35:13.412Z,99790.00
2023-01-12T05:37:41.195Z,99801.25
2023-01-12T05:40:10.853Z,99753.91
2023-01-12T05:42:57.916Z,99763.28
2023-01-12T05:45:26.379Z,99824.94
2023-01-12T05:47:58.177Z,99776.31
2023-01-12T05:50:26.637Z,99822.78
2023-01-12T05:52:54.480Z,99827.63
2023-01-12T05:55:22.235Z,99777.44
2023-01-12T05:57:52.009Z,99797.72
2023-01-12T06:00:20.504Z,99800.50
2023-01-12T06:02:48.409Z,99763.81
2023-01-12T06:05:16.731Z,99799.63
2023-01-12T06:07:44.598Z,99814.41
2023-01-12T06:10:13.308Z,99817.13
2023-01-12T06:12:59.291Z,99803.22
2023-01-12T06:15:28.475Z,99812.28
2023-01-12T06:17:57.834Z,99802.63
2023-01-12T06:20:26.423Z,99801.41
2023-01-12T06:22:54.216Z,99808.50
2023-01-12T06:25:22.381Z,99807.69
2023-01-12T06:27:50.909Z,99807.50
2023-01-12T06:30:19.196Z,99802.34
2023-01-12T06:32:48.460Z,99789.22
2023-01-12T06:35:19.616Z,99813.38
2023-01-12T06:37:47.747Z,99800.94
2023-01-12T06:40:15.876Z,99809.06
2023-01-12T06:42:44.279Z,99817.03
2023-01-12T06:45:12.356Z,99817.03
2023-01-12T06:47:46.773Z,99811.00
2023-01-12T06:50:16.511Z,99823.16
2023-01-12T06:52:44.348Z,99822.84
2023-01-12T06:55:12.576Z,99823.56
2023-01-12T06:57:40.678Z,99780.16
2023-01-12T07:00:12.671Z,99822.47
2023-01-12T07:02:40.863Z,99830.56
2023-01-12T07:05:09.510Z,99815.56
2023-01-12T07:07:40.368Z,99819.84
2023-01-12T07:10:09.035Z,99826.38
2023-01-12T07:12:36.902Z,99805.28
2023-01-12T07:15:06.050Z,99818.00
2023-01-12T07:17:33.946Z,99831.50
2023-01-12T07:20:01.773Z,99844.09
2023-01-12T07:22:30.576Z,99836.00
2023-01-12T07:24:59.831Z,99837.75
2023-01-12T07:27:27.551Z,99829.00
2023-01-12T07:29:56.220Z,99834.41
2023-01-12T07:32:27.278Z,99809.47
2023-01-12T07:34:55.094Z,99798.22
2023-01-12T07:37:23.139Z,99842.75
2023-01-12T07:39:50.965Z,99852.09
2023-01-12T07:42:26.268Z,99845.53
2023-01-12T07:44:54.191Z,99857.31
2023-01-12T07:47:22.000Z,99854.88
2023-01-12T07:49:50.350Z,99841.44
2023-01-12T07:52:18.200Z,99835.03
2023-01-12T07:54:46.040Z,99845.31
2023-01-12T07:57:14.547Z,99826.22
2023-01-12T07:59:43.750Z,99815.09
2023-01-12T08:02:17.115Z,99808.81
2023-01-12T08:04:45.222Z,99856.00
2023-01-12T08:07:14.773Z,99831.72
2023-01-12T08:09:43.199Z,99847.00
2023-01-12T08:12:11.157Z,99835.75
2023-01-12T08:14:41.644Z,99870.03
2023-01-12T08:17:17.531Z,99845.44
2023-01-12T08:19:50.530Z,99838.03
2023-01-12T08:22:22.909Z,99864.44
2023-01-12T08:24:54.897Z,99861.81
2023-01-12T08:27:27.320Z,99877.47
2023-01-12T08:29:58.675Z,99853.25
2023-01-12T08:32:29.958Z,99874.34
2023-01-12T08:35:01.749Z,99851.13
2023-01-12T08:37:31.417Z,99880.81
2023-01-12T08:39:59.527Z,99847.16
2023-01-12T08:42:28.768Z,99878.84
2023-01-12T08:44:57.990Z,99873.22
2023-01-12T08:47:30.309Z,99869.66
2023-01-12T08:50:01.024Z,99880.25
2023-01-12T08:52:31.777Z,99876.19
2023-01-12T08:55:00.169Z,99894.22
2023-01-12T08:57:28.676Z,99892.50
2023-01-12T08:59:57.563Z,99891.94
2023-01-12T09:02:27.154Z,99902.75
2023-01-12T09:04:57.171Z,99898.97
2023-01-12T09:07:25.583Z,99887.31
2023-01-12T09:09:53.464Z,99897.50
2023-01-12T09:12:24.311Z,99896.56
2023-01-12T09:14:53.699Z,99910.53
2023-01-12T09:17:23.455Z,99879.78
2023-01-12T09:19:51.488Z,99918.94
2023-01-12T09:22:20.880Z,99893.78
2023-01-12T09:24:49.237Z,99897.91
2023-01-12T09:27:17.031Z,99919.81
2023-01-12T09:29:44.912Z,99917.47
2023-01-12T09:32:12.824Z,99879.31
2023-01-12T09:34:40.919Z,99909.28
2023-01-12T09:37:08.882Z,99893.78
2023-01-12T09:39:38.714Z,99919.06
2023-01-12T09:42:26.962Z,99883.78
2023-01-12T09:45:12.638Z,99920.00
2023-01-12T09:47:44.675Z,99934.22
2023-01-12T09:50:15.973Z,99934.22
2023-01-12T09:52:48.101Z,99937.09
2023-01-12T09:55:22.080Z,99922.19
2023-01-12T09:58:11.436Z,99956.22
2023-01-12T10:00:40.116Z,99947.88
2023-01-12T10:03:15.361Z,99939.28
2023-01-12T10:05:49.064Z,99930.16
2023-01-12T10:08:23.584Z,99941.94
2023-01-12T10:11:06.378Z,99940.03
2023-01-12T10:14:00.246Z,99945.25
2023-01-12T10:16:36.736Z,99947.22
2023-01-12T10:19:13.338Z,99946.31
2023-01-12T10:21:42.721Z,99955.84
2023-01-12T10:24:13.840Z,99959.81
2023-01-12T10:26:44.878Z,99954.06
2023-01-12T10:29:13.601Z,99954.75
2023-01-12T10:31:41.757Z,99970.69
2023-01-12T10:34:12.231Z,99955.81
2023-01-12T10:36:44.385Z,99955.69
2023-01-12T10:39:30.196Z,99952.59
2023-01-12T10:42:37.111Z,99961.50
2023-01-12T10:45:17.949Z,99955.72
2023-01-12T10:47:47.169Z,99940.59
2023-01-12T10:50:23.880Z,99959.66
2023-01-12T10:52:56.877Z,99952.50
2023-01-12T10:55:27.164Z,99948.53
2023-01-12T10:57:56.690Z,99949.47
2023-01-12T11:00:27.935Z,99953.16
2023-01-12T11:02:56.079Z,99954.78
2023-01-12T11:05:34.718Z,99952.50
2023-01-12T11:08:02.857Z,99922.00
2023-01-12T11:10:32.276Z,99946.94
2023-01-12T11:13:04.897Z,99934.19
2023-01-12T11:15:39.092Z,99953.03
2023-01-12T11:18:28.091Z,99960.75
2023-01-12T11:21:02.151Z,99942.88
2023-01-12T11:23:38.210Z,99939.69
2023-01-12T11:26:19.258Z,99885.81
2023-01-12T11:28:52.754Z,99950.78
2023-01-12T11:31:23.867Z,99931.72
2023-01-12T11:33:57.097Z,99939.34
2023-01-12T11:36:30.161Z,99918.22
2023-01-12T11:39:04.600Z,99922.06
2023-01-12T11:41:37.681Z,99911.00
2023-01-12T11:44:15.869Z,99924.72
2023-01-12T11:46:47.759Z,99920.44
2023-01-12T11:49:24.759Z,99906.75
2023-01-12T11:51:57.469Z,99895.56
2023-01-12T11:54:27.730Z,99893.75
2023-01-12T11:57:35.599Z,99894.06
2023-01-12T12:00:45.429Z,99868.59
2023-01-12T12:03:44.190Z,99890.97
2023-01-12T12:06:28.983Z,99889.50
2023-01-12T12:09:08.998Z,99886.03
2023-01-12T12:11:48.566Z,99882.91
2023-01-12T12:14:28.965Z,99887.97
2023-01-12T12:17:04.070Z,99878.78
2023-01-12T12:19:43.104Z,99885.59
2023-01-12T12:22:25.796Z,99873.47
2023-01-12T12:25:04.938Z,99869.06
2023-01-12T12:27:54.998Z,99855.53
2023-01-12T12:30:39.871Z,99869.41
2023-01-12T12:33:20.850Z,99870.13
2023-01-12T12:36:03.675Z,99864.16
2023-01-12T12:38:44.725Z,99842.38
2023-01-12T12:41:43.813Z,99865.84
2023-01-12T12:44:47.083Z,99863.25
2023-01-12T12:47:44.361Z,99853.41
2023-01-12T12:50:20.488Z,99859.53
2023-01-12T12:53:01.121Z,99791.00
2023-01-12T12:55:29.528Z,99839.56
2023-01-12T12:58:02.244Z,99857.38
2023-01-12T13:00:33.602Z,99858.28
2023-01-12T13:03:01.370Z,99844.09
2023-01-12T13:05:43.839Z,99826.81
2023-01-12T13:08:22.659Z,99814.00
2023-01-12T13:10:56.830Z,99834.66
2023-01-12T13:13:32.745Z,99845.50
2023-01-12T13:16:46.672Z,99829.47
2023-01-12T13:19:33.042Z,99817.94
2023-01-12T13:22:20.269Z,99826.47
2023-01-12T13:24:49.472Z,99805.94
2023-01-12T13:27:50.241Z,99829.47
2023-01-12T13:30:40.491Z,99819.47
2023-01-12T13:33:33.025Z,99812.88
2023-01-12T13:36:10.832Z,99811.59
2023-01-12T13:39:02.131Z,99812.31
2023-01-12T13:41:52.041Z,99806.53
2023-01-12T13:44:29.078Z,99807.91
2023-01-12T13:47:05.292Z,99806.78
2023-01-12T13:49:34.947Z,99806.31
2023-01-12T13:52:05.225Z,99805.28
2023-01-12T13:54:34.608Z,99789.69
2023-01-12T13:57:10.661Z,99805.28
2023-01-12T13:59:38.741Z,99799.25
2023-01-12T14:02:18.983Z,99782.91
2023-01-12T14:05:04.177Z,99795.34
2023-01-12T14:07:44.538Z,99789.47
2023-01-12T14:10:26.001Z,99786.13
2023-01-12T14:13:15.975Z,99769.16
2023-01-12T14:16:02.528Z,99762.34
2023-01-12T14:18:42.011Z,99776.66
2023-01-12T14:21:23.232Z,99756.03
2023-01-12T14:23:51.159Z,99760.16
2023-01-12T14:26:23.921Z,99768.69
2023-01-12T14:28:54.133Z,99766.66
2023-01-12T14:31:28.338Z,99778.03
2023-01-12T14:33:58.332Z,99786.56
2023-01-12T14:36:30.445Z,99765.81
2023-01-12T14:39:00.739Z,99769.53
2023-01-12T14:41:48.282Z,99779.66
2023-01-12T14:44:38.392Z,99766.13
2023-01-12T14:47:06.757Z,99754.72
2023-01-12T14:49:35.920Z,99761.53
2023-01-12T14:52:22.832Z,99755.88
2023-01-12T14:54:52.114Z,99755.88
2023-01-12T14:57:24.487Z,99747.06
2023-01-12T14:59:54.353Z,99740.75
2023-01-12T15:02:34.581Z,99759.09
2023-01-12T15:05:04.529Z,99745.75
2023-01-12T15:07:36.850Z,99752.50
2023-01-12T15:10:32.235Z,99745.47
2023-01-12T15:13:13.169Z,99729.44
2023-01-12T15:15:59.460Z,99728.84
2023-01-12T15:18:45.291Z,99720.09
2023-01-12T15:21:30.280Z,99742.81
2023-01-12T15:24:18.480Z,99746.03
2023-01-12T15:26:51.101Z,99733.66
2023-01-12T15:29:24.269Z,99725.31
2023-01-12T15:31:53.574Z,99702.75
2023-01-12T15:34:21.498Z,99739.06
2023-01-12T15:36:49.816Z,99718.81
2023-01-12T15:39:17.657Z,99738.72
2023-01-12T15:42:03.901Z,99741.25
2023-01-12T15:44:31.640Z,99744.97
2023-01-12T15:47:01.214Z,99738.31
2023-01-12T15:49:29.749Z,99737.91
2023-01-12T15:51:57.508Z,99743.25
2023-01-12T15:54:25.384Z,99756.50
2023-01-12T15:56:54.353Z,99746.81
2023-01-12T15:59:22.179Z,99740.09
2023-01-12T16:01:50.824Z,99737.34
2023-01-12T16:07:11.501Z,99741.97
2023-01-12T16:09:41.576Z,99740.25
2023-01-12T16:12:10.160Z,99724.28
2023-01-12T16:14:38.334Z,99716.31
2023-01-12T16:17:06.655Z,99727.50
2023-01-12T16:19:41.265Z,99728.75
2023-01-12T16:22:18.361Z,99734.41
2023-01-12T16:24:46.136Z,99727.50
2023-01-12T16:27:13.965Z,99733.25
2023-01-12T16:29:42.530Z,99720.44
2023-01-12T16:32:10.859Z,99723.59
2023-01-12T16:34:40.819Z,99719.19
2023-01-12T16:37:14.524Z,99713.78
2023-01-12T16:39:43.014Z,99719.41
2023-01-12T16:42:11.349Z,99715.88
2023-01-12T16:44:41.080Z,99687.50
2023-01-12T16:47:12.023Z,99698.00
2023-01-12T16:49:41.896Z,99723.69
2023-01-12T16:52:14.467Z,99696.94
2023-01-12T16:54:44.347Z,99706.66
2023-01-12T16:57:12.992Z,99713.44
2023-01-12T16:59:40.919Z,99708.22
2023-01-12T17:02:10.184Z,99685.75
2023-01-12T17:04:39.618Z,99698.00
2023-01-12T17:09:59.137Z,99717.34
2023-01-12T17:15:16.121Z,99725.03
2023-01-12T17:17:45.336Z,99678.59
2023-01-12T17:20:13.761Z,99709.38
2023-01-12T17:22:43.869Z,99690.94
2023-01-12T17:25:12.746Z,99710.75
2023-01-12T17:27:40.555Z,99706.91
2023-01-12T17:30:09.799Z,99695.16
2023-01-12T17:32:38.361Z,99694.44
2023-01-12T17:35:09.368Z,99701.59
2023-01-12T17:37:37.505Z,99719.72
2023-01-12T17:40:08.419Z,99699.50
2023-01-12T17:42:53.481Z,99709.66
2023-01-12T17:45:21.860Z,99697.09
2023-01-12T17:47:49.817Z,99701.41
2023-01-12T17:50:18.060Z,99697.00
2023-01-12T17:52:46.465Z,99665.25
2023-01-12T17:55:15.933Z,99706.25
2023-01-12T17:57:43.948Z,99682.72
2023-01-12T18:00:16.174Z,99654.19
2023-01-12T18:02:44.253Z,99716.78
2023-01-12T18:05:12.312Z,99697.94
2023-01-12T18:07:42.062Z,99679.72
2023-01-12T18:10:11.542Z,99647.75
2023-01-12T18:12:41.441Z,99691.75
2023-01-12T18:15:10.746Z,99691.75
2023-01-12T18:17:38.840Z,99701.75
2023-01-12T18:20:08.059Z,99675.91
2023-01-12T18:22:35.832Z,99688.41
2023-01-12T18:25:03.547Z,99660.09
2023-01-12T18:27:31.859Z,99699.50
2023-01-12T18:30:01.245Z,99693.25
2023-01-12T18:32:29.046Z,99672.06
2023-01-12T18:34:58.402Z,99698.75
2023-01-12T18:37:26.202Z,99697.72
2023-01-12T18:39:54.081Z,99692.78
2023-01-12T18:42:39.751Z,99686.09
2023-01-12T18:45:10.057Z,99672.13
2023-01-12T18:47:55.504Z,99704.06
2023-01-12T18:50:42.370Z,99691.25
2023-01-12T18:53:30.954Z,99672.53
2023-01-12T18:56:02.413Z,99669.53
2023-01-12T18:58:33.178Z,99696.03
2023-01-12T19:01:04.971Z,99687.38
2023-01-12T19:03:34.418Z,99688.63
2023-01-12T19:06:19.755Z,99687.38
2023-01-12T19:09:05.019Z,99701.44
2023-01-12T19:11:33.036Z,99702.81
2023-01-12T19:14:18.615Z,99690.72
2023-01-12T19:17:05.204Z,99689.94
2023-01-12T19:19:35.049Z,99699.25
2023-01-12T19:22:21.111Z,99670.91
2023-01-12T19:25:11.709Z,99692.19
2023-01-12T19:27:57.235Z,99696.59
2023-01-12T19:30:25.445Z,99718.06
2023-01-12T19:32:55.467Z,99679.56
2023-01-12T19:35:23.330Z,99685.53
2023-01-12T19:37:51.851Z,99704.22
2023-01-12T19:40:25.709Z,99707.22
2023-01-12T19:43:12.726Z,99706.31
2023-01-12T19:45:41.757Z,99700.66
2023-01-12T19:48:12.891Z,99696.75
2023-01-12T19:50:43.244Z,99695.56
2023-01-12T19:53:13.954Z,99676.47
2023-01-12T19:55:42.837Z,99699.00
2023-01-12T19:58:11.258Z,99699.81
2023-01-12T20:00:43.682Z,99664.50
2023-01-12T20:03:14.873Z,99700.66
2023-01-12T20:05:44.085Z,99700.75
2023-01-12T20:08:12.552Z,99697.31
2023-01-12T20:10:40.426Z,99680.03
2023-01-12T20:13:09.185Z,99685.66
2023-01-12T20:15:39.793Z,99670.78
2023-01-12T20:18:08.886Z,99670.44
2023-01-12T20:20:40.547Z,99662.84
2023-01-12T20:23:08.414Z,99667.81
2023-01-12T20:25:36.284Z,99679.22
2023-01-12T20:28:04.259Z,99642.47
2023-01-12T20:30:37.933Z,99680.72
2023-01-12T20:33:06.394Z,99671.25
2023-01-12T20:35:34.986Z,99665.25
2023-01-12T20:38:07.182Z,99656.75
2023-01-12T20:40:35.343Z,99671.25
2023-01-12T20:43:03.251Z,99658.69
2023-01-12T20:45:31.243Z,99663.19
2023-01-12T20:47:59.158Z,99630.81
2023-01-12T20:50:27.137Z,99633.47
2023-01-12T20:52:55.241Z,99608.59
2023-01-12T20:55:24.561Z,99656.41
2023-01-12T20:57:53.716Z,99655.81
2023-01-12T21:00:22.090Z,99659.69
2023-01-12T21:02:50.077Z,99637.19
2023-01-12T21:05:18.075Z,99637.47
2023-01-12T21:07:47.495Z,99659.81
2023-01-12T21:10:16.918Z,99640.03
2023-01-12T21:12:46.835Z,99637.94
2023-01-12T21:15:14.733Z,99639.84
2023-01-12T21:17:42.804Z,99666.97
2023-01-12T21:20:12.361Z,99645.03
2023-01-12T21:22:40.251Z,99636.19
2023-01-12T21:25:09.589Z,99621.22
2023-01-12T21:27:39.126Z,99632.28
2023-01-12T21:30:12.343Z,99630.19
2023-01-12T21:32:40.870Z,99637.19
2023-01-12T21:35:09.405Z,99613.81
2023-01-12T21:37:37.346Z,99639.63
2023-01-12T21:40:06.113Z,99639.69
2023-01-12T21:42:51.270Z,99652.59
2023-01-12T21:45:21.192Z,99689.44
2023-01-12T21:47:49.013Z,99679.31
2023-01-12T21:50:17.653Z,99701.19
2023-01-12T21:52:45.717Z,99677.03
2023-01-12T21:55:13.833Z,99699.25
2023-01-12T21:57:41.745Z,99689.38
2023-01-12T22:00:12.013Z,99691.06
2023-01-12T22:02:41.627Z,99692.34
2023-01-12T22:05:10.637Z,99699.59
2023-01-12T22:07:38.961Z,99694.75
2023-01-12T22:10:19.997Z,99650.28
2023-01-12T22:12:48.631Z,99700.84
2023-01-12T22:15:16.958Z,99700.41
2023-01-12T22:17:46.225Z,99688.53
2023-01-12T22:20:16.440Z,99703.00
2023-01-12T22:22:45.172Z,99705.00
2023-01-12T22:25:15.676Z,99695.69
2023-01-12T22:27:44.319Z,99705.63
2023-01-12T22:30:14.848Z,99706.44
2023-01-12T22:32:43.011Z,99672.69
2023-01-12T22:35:14.443Z,99710.94
2023-01-12T22:37:42.783Z,99707.69
2023-01-12T22:40:13.322Z,99700.34
2023-01-12T22:43:01.326Z,99697.94
2023-01-12T22:45:29.403Z,99722.69
2023-01-12T22:47:57.739Z,99691.00
2023-01-12T22:50:27.545Z,99742.31
2023-01-12T22:52:56.451Z,99740.47
2023-01-12T22:55:26.136Z,99742.56
2023-01-12T22:57:54.600Z,99735.28
2023-01-12T23:00:22.541Z,99718.31
2023-01-12T23:03:03.254Z,99731.59
2023-01-12T23:05:36.248Z,99737.69
2023-01-12T23:08:06.049Z,99718.44
2023-01-12T23:10:34.235Z,99713.03
2023-01-12T23:13:19.691Z,99704.50
2023-01-12T23:15:50.316Z,99688.47
2023-01-12T23:18:21.493Z,99733.06
2023-01-12T23:20:50.895Z,99703.81
2023-01-12T23:23:18.772Z,99662.19
2023-01-12T23:25:48.652Z,99695.03
2023-01-12T23:28:17.035Z,99719.38
2023-01-12T23:30:45.254Z,99692.28
2023-01-12T23:33:13.886Z,99702.50
2023-01-12T23:35:43.279Z,99678.56
2023-01-12T23:38:16.504Z,99728.38
2023-01-12T23:40:44.557Z,99700.09
2023-01-12T23:43:12.363Z,99719.13
2023-01-12T23:45:40.777Z,99688.78
2023-01-12T23:48:08.872Z,99690.75
2023-01-12T23:50:36.926Z,99638.13
2023-01-12T23:53:05.136Z,99680.75
2023-01-12T23:55:34.422Z,99645.94
2023-01-12T23:58:02.275Z,99687.19
